Time;durP1;ratioP1;P1;durP2;ratioP2;P2;SDS_P1;SDS_P2;PMS_P1;PMS_P2;Temp;Humidity;BMP_temperature;BMP_pressure;BME280_temperature;BME280_humidity;BME280_pressure;Samples;Min_cycle;Max_cycle;Signal;HPM_P1;HPM_P2
2020/12/04 00:02:07;;;;;;;3.78;3.03;;;5.50;90.70;;;;;;5038495;28;20017;-76
2020/12/04 00:04:34;;;;;;;3.45;3.03;;;5.50;90.70;;;;;;5038319;28;20036;-76
2020/12/04 00:07:01;;;;;;;3.58;2.70;;;5.50;90.60;;;;;;5037215;28;20469;-76
2020/12/04 00:09:26;;;;;;;3.00;2.60;;;5.50;90.60;;;;;;5055803;28;20029;-76
2020/12/04 00:11:52;;;;;;;2.95;2.55;;;5.50;90.50;;;;;;5034311;28;20021;-76
2020/12/04 00:14:18;;;;;;;2.80;2.42;;;5.50;90.50;;;;;;5034050;28;20037;-76
2020/12/04 00:16:44;;;;;;;2.67;2.17;;;5.50;90.50;;;;;;5039936;28;20033;-76
2020/12/04 00:19:10;;;;;;;2.33;2.00;;;5.50;90.50;;;;;;5021318;28;20043;-76
2020/12/04 00:21:36;;;;;;;1.95;1.70;;;5.60;90.50;;;;;;5042957;28;20154;-76
2020/12/04 00:24:01;;;;;;;2.55;2.13;;;5.60;90.40;;;;;;5036886;28;20028;-76
2020/12/04 00:26:27;;;;;;;2.60;1.88;;;5.60;90.40;;;;;;5037418;28;20518;-76
2020/12/04 00:28:53;;;;;;;2.10;1.63;;;5.60;90.40;;;;;;5037445;28;20025;-76
2020/12/04 00:31:19;;;;;;;1.45;1.35;;;5.60;90.40;;;;;;5041591;28;20033;-76
2020/12/04 00:33:45;;;;;;;1.88;1.58;;;5.60;90.30;;;;;;5035774;28;20033;-76
2020/12/04 00:36:11;;;;;;;3.42;1.33;;;5.60;90.20;;;;;;5048879;28;20119;-76
2020/12/04 00:38:37;;;;;;;3.72;1.30;;;5.60;90.20;;;;;;5018554;28;20077;-76
2020/12/04 00:41:04;;;;;;;1.98;1.50;;;5.60;90.10;;;;;;5009299;28;20486;-76
2020/12/04 00:43:29;;;;;;;3.85;1.50;;;5.70;90.10;;;;;;5038074;28;20386;-77
2020/12/04 00:45:55;;;;;;;1.35;1.15;;;5.70;90.10;;;;;;5027702;28;20047;-76
2020/12/04 00:48:21;;;;;;;1.50;1.02;;;5.70;90.10;;;;;;5054302;28;20072;-76
2020/12/04 00:50:46;;;;;;;1.35;1.15;;;5.70;90.00;;;;;;5038284;28;20445;-76
2020/12/04 00:53:12;;;;;;;1.67;1.35;;;5.70;90.00;;;;;;5040775;28;20038;-76
2020/12/04 00:55:38;;;;;;;1.02;0.90;;;5.70;90.00;;;;;;5034253;28;20021;-76
2020/12/04 00:58:04;;;;;;;1.70;1.20;;;5.70;90.00;;;;;;5042486;28;20036;-76
2020/12/04 01:00:30;;;;;;;1.52;1.00;;;5.70;89.60;;;;;;5037527;28;20029;-76
2020/12/04 01:02:56;;;;;;;1.60;1.05;;;5.70;89.60;;;;;;5026656;28;20049;-76
2020/12/04 01:05:22;;;;;;;1.17;1.02;;;5.80;89.50;;;;;;5033800;28;20064;-76
2020/12/04 01:07:47;;;;;;;1.10;0.80;;;5.80;89.20;;;;;;5009836;28;20436;-77
2020/12/04 01:10:13;;;;;;;0.80;0.80;;;5.80;89.30;;;;;;5020587;28;20041;-77
2020/12/04 01:12:42;;;;;;;0.90;0.90;;;5.80;89.10;;;;;;5028993;28;20037;-76
2020/12/04 01:15:08;;;;;;;2.28;0.70;;;5.80;89.10;;;;;;5054598;28;20029;-76
2020/12/04 01:17:35;;;;;;;0.82;0.70;;;5.80;89.00;;;;;;5047971;28;20033;-76
2020/12/04 01:20:00;;;;;;;1.13;0.85;;;5.90;88.90;;;;;;5044025;28;20102;-76
2020/12/04 01:22:26;;;;;;;1.10;0.77;;;5.80;88.80;;;;;;5016991;28;20394;-76
2020/12/04 01:24:52;;;;;;;1.08;0.80;;;5.80;88.90;;;;;;5042034;28;20037;-76
2020/12/04 01:27:18;;;;;;;0.45;0.43;;;5.90;88.90;;;;;;5016842;28;20041;-77
2020/12/04 01:29:44;;;;;;;1.65;0.77;;;5.80;88.80;;;;;;5036621;28;20060;-76
2020/12/04 01:32:10;;;;;;;0.77;0.60;;;5.90;88.90;;;;;;5018629;28;20124;-77
2020/12/04 01:34:35;;;;;;;0.70;0.70;;;5.80;88.80;;;;;;5036678;28;20068;-76
2020/12/04 01:37:01;;;;;;;0.90;0.60;;;5.90;88.70;;;;;;5035806;28;20720;-76
2020/12/04 01:39:27;;;;;;;0.52;0.52;;;5.90;88.70;;;;;;5036427;28;20497;-76
2020/12/04 01:41:52;;;;;;;1.63;0.55;;;5.90;88.60;;;;;;5036441;28;20091;-76
2020/12/04 01:44:18;;;;;;;1.45;0.70;;;5.90;88.60;;;;;;5042727;28;20029;-76
2020/12/04 01:46:44;;;;;;;0.47;0.40;;;5.90;88.50;;;;;;5016771;28;20029;-76
2020/12/04 01:49:10;;;;;;;0.63;0.50;;;5.90;88.30;;;;;;5010023;28;20483;-76
2020/12/04 01:51:36;;;;;;;1.13;0.40;;;5.90;88.10;;;;;;5037626;28;20508;-76
2020/12/04 01:54:03;;;;;;;0.68;0.50;;;5.90;88.10;;;;;;5011373;28;20394;-76
2020/12/04 01:56:37;;;;;;;0.60;0.50;;;6.00;88.10;;;;;;5043223;28;20031;-76
2020/12/04 01:59:04;;;;;;;1.35;0.70;;;6.00;88.00;;;;;;5053644;28;20087;-77
2020/12/04 02:01:34;;;;;;;0.60;0.50;;;6.00;88.00;;;;;;5035196;28;20108;-76
2020/12/04 02:04:00;;;;;;;0.60;0.52;;;6.00;88.10;;;;;;5035112;28;20079;-76
2020/12/04 02:06:37;;;;;;;1.10;0.70;;;6.00;88.10;;;;;;5053699;28;20470;-76
2020/12/04 02:09:09;;;;;;;0.80;0.50;;;6.00;88.40;;;;;;5045321;28;20390;-76
2020/12/04 02:11:36;;;;;;;0.40;0.40;;;5.90;88.40;;;;;;5034931;28;20033;-76
2020/12/04 02:14:02;;;;;;;0.95;0.60;;;5.90;88.40;;;;;;5052752;28;20064;-76
2020/12/04 02:16:28;;;;;;;0.70;0.60;;;5.90;88.50;;;;;;5030258;28;20087;-76
2020/12/04 02:18:54;;;;;;;1.40;0.50;;;5.90;88.70;;;;;;5053303;28;20441;-76
2020/12/04 02:21:20;;;;;;;0.90;0.50;;;5.90;88.90;;;;;;5053531;28;20048;-76
2020/12/04 02:23:48;;;;;;;0.50;0.50;;;5.90;88.90;;;;;;5035493;28;20539;-76
2020/12/04 02:26:17;;;;;;;1.55;0.82;;;5.90;89.10;;;;;;5052715;28;20029;-76
2020/12/04 02:28:42;;;;;;;1.00;0.70;;;5.90;89.30;;;;;;5027280;28;20035;-76
2020/12/04 02:31:08;;;;;;;0.85;0.75;;;5.90;89.30;;;;;;5035409;28;20041;-76
2020/12/04 02:33:35;;;;;;;0.98;0.80;;;5.90;89.40;;;;;;5032334;28;20029;-76
2020/12/04 02:36:01;;;;;;;1.45;1.00;;;5.90;89.50;;;;;;5041072;28;20040;-76
2020/12/04 02:38:27;;;;;;;0.80;0.80;;;5.80;89.60;;;;;;5050899;28;20120;-76
2020/12/04 02:40:53;;;;;;;1.58;1.20;;;5.80;89.70;;;;;;5048527;28;20125;-76
2020/12/04 02:43:19;;;;;;;1.95;1.50;;;5.80;89.70;;;;;;5026842;28;20545;-77
2020/12/04 02:45:45;;;;;;;1.27;1.10;;;5.80;89.70;;;;;;5035288;28;20108;-76
2020/12/04 02:48:11;;;;;;;2.60;1.63;;;5.70;89.70;;;;;;5052698;28;20029;-76
2020/12/04 02:50:37;;;;;;;2.25;1.70;;;5.70;89.80;;;;;;5049623;28;20529;-76
2020/12/04 02:53:04;;;;;;;1.95;1.60;;;5.70;89.80;;;;;;5052873;28;20074;-76
2020/12/04 02:55:29;;;;;;;1.95;1.48;;;5.70;89.80;;;;;;5052489;28;20362;-76
2020/12/04 02:57:55;;;;;;;3.03;1.80;;;5.70;89.80;;;;;;5034765;28;20032;-76
2020/12/04 03:00:20;;;;;;;1.83;1.73;;;5.70;89.70;;;;;;5026747;28;21141;-76
2020/12/04 03:02:46;;;;;;;3.00;1.70;;;5.70;90.10;;;;;;5018335;28;20473;-76
2020/12/04 03:05:12;;;;;;;2.17;1.98;;;5.70;90.10;;;;;;5052334;28;20381;-76
2020/12/04 03:07:37;;;;;;;2.25;1.75;;;5.70;89.70;;;;;;5012288;28;20140;-76
2020/12/04 03:10:05;;;;;;;2.15;1.85;;;5.60;89.70;;;;;;5052500;28;20102;-76
2020/12/04 03:12:32;;;;;;;3.58;2.20;;;5.60;89.80;;;;;;5035170;28;20037;-76
2020/12/04 03:15:00;;;;;;;2.45;2.10;;;5.60;89.80;;;;;;5039650;28;20033;-76
2020/12/04 03:17:26;;;;;;;2.42;2.10;;;5.60;90.00;;;;;;5055727;28;20397;-75
2020/12/04 03:19:52;;;;;;;3.15;2.35;;;5.60;90.00;;;;;;5038558;28;20116;-75
2020/12/04 03:22:18;;;;;;;3.97;1.77;;;5.60;90.00;;;;;;5038532;28;20124;-75
2020/12/04 03:24:43;;;;;;;2.70;1.73;;;5.60;90.00;;;;;;5056240;28;20079;-76
2020/12/04 03:27:09;;;;;;;3.85;2.10;;;5.60;90.00;;;;;;5038735;28;20075;-75
2020/12/04 03:29:35;;;;;;;2.50;1.90;;;5.60;90.10;;;;;;5039524;28;20048;-76
2020/12/04 03:32:00;;;;;;;2.70;2.00;;;5.60;90.20;;;;;;5033999;28;20075;-76
2020/12/04 03:34:26;;;;;;;2.20;2.00;;;5.60;90.20;;;;;;5034265;28;20398;-76
2020/12/04 03:36:51;;;;;;;2.50;1.90;;;5.60;90.20;;;;;;5045774;28;20049;-75
2020/12/04 03:39:17;;;;;;;2.15;1.80;;;5.60;90.30;;;;;;5056108;28;20029;-76
2020/12/04 03:41:42;;;;;;;2.30;1.90;;;5.50;90.30;;;;;;5048112;28;20104;-76
2020/12/04 03:44:08;;;;;;;2.53;2.10;;;5.50;90.40;;;;;;5021901;28;20032;-76
2020/12/04 03:46:34;;;;;;;1.65;1.55;;;5.50;90.40;;;;;;5021602;28;20544;-76
2020/12/04 03:48:59;;;;;;;2.90;2.08;;;5.50;90.50;;;;;;5026806;28;20064;-76
2020/12/04 03:51:25;;;;;;;2.30;1.73;;;5.50;90.50;;;;;;5055943;28;20040;-76
2020/12/04 03:53:50;;;;;;;2.80;2.35;;;5.50;90.50;;;;;;5055573;28;20621;-76
2020/12/04 03:56:16;;;;;;;2.97;2.28;;;5.50;90.50;;;;;;5021554;28;20037;-76
2020/12/04 03:58:41;;;;;;;2.17;1.98;;;5.50;90.50;;;;;;5055577;28;20504;-76
2020/12/04 04:01:07;;;;;;;2.65;2.13;;;5.50;90.50;;;;;;5021099;28;20184;-76
2020/12/04 04:03:33;;;;;;;1.92;1.83;;;5.50;90.60;;;;;;5055539;28;20485;-76
2020/12/04 04:05:58;;;;;;;3.42;2.60;;;5.50;90.60;;;;;;5037215;28;20087;-76
2020/12/04 04:08:24;;;;;;;2.53;2.08;;;5.50;90.60;;;;;;5035289;28;20379;-76
2020/12/04 04:10:50;;;;;;;3.13;2.13;;;5.50;90.50;;;;;;5020490;28;20068;-76
2020/12/04 04:13:15;;;;;;;2.70;1.90;;;5.50;90.60;;;;;;5051378;28;20116;-76
2020/12/04 04:15:41;;;;;;;2.15;1.95;;;5.50;90.60;;;;;;5032300;28;20033;-76
2020/12/04 04:18:06;;;;;;;2.20;2.00;;;5.50;90.50;;;;;;5021190;28;20025;-76
2020/12/04 04:20:32;;;;;;;2.53;2.03;;;5.50;90.50;;;;;;5021185;28;20398;-76
2020/12/04 04:22:58;;;;;;;1.90;1.73;;;5.50;90.50;;;;;;5037447;28;20386;-75
2020/12/04 04:25:24;;;;;;;2.35;1.80;;;5.50;90.50;;;;;;5031851;28;20028;-76
2020/12/04 04:27:49;;;;;;;2.05;1.55;;;5.50;90.50;;;;;;5042581;28;20025;-76
2020/12/04 04:30:15;;;;;;;1.85;1.55;;;5.50;90.40;;;;;;5037218;28;20033;-76
2020/12/04 04:32:40;;;;;;;2.35;1.80;;;5.60;90.50;;;;;;5037259;28;20041;-76
2020/12/04 04:35:07;;;;;;;2.03;1.65;;;5.60;90.40;;;;;;5037202;28;20102;-76
2020/12/04 04:37:33;;;;;;;1.75;1.52;;;5.60;90.40;;;;;;5051706;28;20073;-76
2020/12/04 04:39:58;;;;;;;1.90;1.70;;;5.60;90.40;;;;;;5054802;28;20415;-76
2020/12/04 04:42:24;;;;;;;1.70;1.60;;;5.50;90.40;;;;;;5037014;28;20134;-76
2020/12/04 04:44:51;;;;;;;2.15;1.70;;;5.60;90.40;;;;;;5049858;28;20021;-76
2020/12/04 04:47:21;;;;;;;2.67;1.42;;;5.60;90.40;;;;;;5055096;28;20017;-75
2020/12/04 04:49:52;;;;;;;2.05;1.60;;;5.60;90.40;;;;;;5054967;28;20024;-76
2020/12/04 04:52:18;;;;;;;1.55;1.30;;;5.60;90.40;;;;;;5046378;28;20066;-76
2020/12/04 04:54:49;;;;;;;1.67;1.38;;;5.60;90.30;;;;;;5036805;28;20025;-76
2020/12/04 04:57:20;;;;;;;1.60;1.40;;;5.60;90.30;;;;;;5054259;28;20036;-77
2020/12/04 04:59:46;;;;;;;1.33;1.23;;;5.60;90.30;;;;;;5036850;28;20021;-77
2020/12/04 05:02:13;;;;;;;1.48;1.30;;;5.70;90.30;;;;;;5053109;28;20025;-76
2020/12/04 05:04:53;;;;;;;1.63;1.50;;;5.70;90.30;;;;;;5044769;28;20075;-76
2020/12/04 05:07:33;;;;;;;1.35;1.00;;;5.70;90.20;;;;;;5053152;28;20037;-76
2020/12/04 05:10:16;;;;;;;2.95;1.23;;;5.70;90.50;;;;;;5046204;28;20025;-76
2020/12/04 05:12:43;;;;;;;1.83;1.30;;;5.70;90.20;;;;;;5051073;28;20036;-76
2020/12/04 05:15:19;;;;;;;2.17;1.30;;;5.70;90.20;;;;;;5053451;28;20029;-76
2020/12/04 05:18:10;;;;;;;1.20;1.05;;;5.80;90.20;;;;;;5047524;28;20024;-76
2020/12/04 05:20:48;;;;;;;1.38;1.10;;;5.80;90.20;;;;;;5017280;28;20041;-76
2020/12/04 05:23:14;;;;;;;1.65;1.00;;;5.80;90.10;;;;;;5052430;28;20021;-76
2020/12/04 05:25:44;;;;;;;2.38;1.23;;;5.80;90.10;;;;;;5053940;28;20032;-76
2020/12/04 05:28:15;;;;;;;1.35;1.02;;;5.80;90.10;;;;;;5054191;28;20025;-76
2020/12/04 05:30:46;;;;;;;1.10;1.00;;;5.80;90.10;;;;;;5046042;28;20029;-76
2020/12/04 05:33:13;;;;;;;1.40;1.23;;;5.80;90.50;;;;;;5036563;28;20037;-76
2020/12/04 05:35:40;;;;;;;1.65;1.10;;;5.90;90.20;;;;;;5026361;28;20029;-76
2020/12/04 05:38:11;;;;;;;1.52;1.20;;;5.90;90.20;;;;;;5053399;28;20021;-76
2020/12/04 05:40:37;;;;;;;1.38;1.10;;;5.90;90.20;;;;;;5020741;28;20021;-76
2020/12/04 05:43:04;;;;;;;1.10;1.00;;;5.90;90.20;;;;;;5053530;28;20029;-76
2020/12/04 05:45:31;;;;;;;1.77;1.10;;;5.90;90.30;;;;;;5035326;28;20032;-76
2020/12/04 05:47:57;;;;;;;2.50;0.90;;;5.90;90.30;;;;;;5034476;28;20559;-76
2020/12/04 05:50:22;;;;;;;1.10;1.00;;;5.80;90.30;;;;;;5052973;28;20063;-76
2020/12/04 05:52:49;;;;;;;1.70;1.15;;;5.80;90.30;;;;;;5018658;28;20032;-76
2020/12/04 05:55:15;;;;;;;1.48;0.90;;;5.90;90.30;;;;;;5044411;28;20025;-75
2020/12/04 05:57:53;;;;;;;1.30;0.98;;;5.80;90.30;;;;;;5052078;28;20016;-76
2020/12/04 06:00:20;;;;;;;1.17;1.05;;;5.90;90.40;;;;;;5041191;28;20032;-76
2020/12/04 06:02:55;;;;;;;3.25;0.70;;;5.90;90.40;;;;;;5052729;28;20377;-77
2020/12/04 06:05:24;;;;;;;1.13;0.82;;;5.90;90.40;;;;;;5033912;28;20021;-76
2020/12/04 06:07:50;;;;;;;0.70;0.60;;;5.90;90.40;;;;;;5028687;28;20060;-83
2020/12/04 06:10:16;;;;;;;1.15;0.85;;;5.90;90.30;;;;;;5035461;28;20283;-83
2020/12/04 06:12:50;;;;;;;1.38;0.95;;;6.00;90.30;;;;;;5053240;28;20485;-83
2020/12/04 06:15:20;;;;;;;0.82;0.52;;;6.10;90.40;;;;;;5035605;28;20021;-81
2020/12/04 06:17:45;;;;;;;0.80;0.60;;;6.10;90.30;;;;;;5037213;28;20096;-81
2020/12/04 06:20:22;;;;;;;0.95;0.73;;;6.10;90.20;;;;;;5035176;28;20561;-82
2020/12/04 06:23:09;;;;;;;0.88;0.68;;;6.20;90.20;;;;;;5034922;28;20029;-82
2020/12/04 06:26:13;;;;;;;2.25;0.60;;;6.20;90.50;;;;;;5018920;28;20362;-82
2020/12/04 06:28:40;;;;;;;0.95;0.57;;;6.20;90.10;;;;;;4937393;29;20066;-82
2020/12/04 06:31:13;;;;;;;0.82;0.57;;;6.30;90.10;;;;;;4902633;29;20035;-82
2020/12/04 06:33:42;;;;;;;0.70;0.38;;;6.30;90.10;;;;;;4978612;28;20049;-81
2020/12/04 06:36:09;;;;;;;0.43;0.40;;;6.30;90.00;;;;;;5029434;28;20501;-81
2020/12/04 06:38:38;;;;;;;0.85;0.57;;;6.40;90.00;;;;;;5035079;28;20278;-80
2020/12/04 06:41:24;;;;;;;1.55;0.60;;;6.40;90.00;;;;;;5035428;28;20040;-81
2020/12/04 06:43:55;;;;;;;0.77;0.50;;;6.40;90.00;;;;;;5034876;28;20037;-80
2020/12/04 06:46:27;;;;;;;0.40;0.40;;;6.40;89.90;;;;;;5035198;28;20031;-80
2020/12/04 06:51:59;;;;;;;0.65;0.32;;;6.50;89.70;;;;;;5053498;28;20024;-81
2020/12/04 06:54:29;;;;;;;1.20;0.60;;;6.50;89.60;;;;;;5053252;28;20059;-81
2020/12/04 06:56:55;;;;;;;0.52;0.52;;;6.50;89.50;;;;;;5035023;28;20067;-80
2020/12/04 06:59:28;;;;;;;0.82;0.50;;;6.50;89.50;;;;;;5039168;28;20039;-81
2020/12/04 07:01:59;;;;;;;0.90;0.45;;;6.60;89.60;;;;;;5051823;28;20036;-80
2020/12/04 07:04:24;;;;;;;0.40;0.30;;;6.60;89.50;;;;;;5034496;28;20029;-80
2020/12/04 07:06:50;;;;;;;1.20;0.60;;;6.60;89.40;;;;;;5052698;28;20389;-80
2020/12/04 07:09:16;;;;;;;1.20;0.40;;;6.70;89.40;;;;;;5036009;28;20470;-80
2020/12/04 07:11:41;;;;;;;1.10;0.43;;;6.70;89.30;;;;;;5052583;28;20036;-80
2020/12/04 07:14:07;;;;;;;1.08;0.43;;;6.80;89.00;;;;;;5035327;28;20470;-81
2020/12/04 07:16:40;;;;;;;0.40;0.35;;;6.90;88.90;;;;;;5035073;28;20033;-80
2020/12/04 07:19:06;;;;;;;0.95;0.30;;;6.90;88.70;;;;;;5052688;28;20021;-80
2020/12/04 07:21:32;;;;;;;1.38;0.40;;;7.00;88.60;;;;;;5052746;28;20060;-79
2020/12/04 07:23:59;;;;;;;0.93;0.32;;;7.00;88.40;;;;;;5052382;28;20071;-81
2020/12/04 07:26:25;;;;;;;1.50;0.38;;;7.10;88.20;;;;;;5035042;28;20044;-80
2020/12/04 07:28:51;;;;;;;0.82;0.50;;;7.20;88.10;;;;;;5052303;28;20036;-80
2020/12/04 07:31:21;;;;;;;0.35;0.30;;;7.20;88.00;;;;;;5018471;28;20029;-80
2020/12/04 07:33:53;;;;;;;1.77;0.20;;;7.20;87.60;;;;;;5052355;28;20036;-80
2020/12/04 07:36:19;;;;;;;1.40;0.30;;;7.30;87.20;;;;;;5047209;28;20099;-80
2020/12/04 07:39:01;;;;;;;0.93;0.30;;;7.30;86.90;;;;;;5052359;28;20029;-80
2020/12/04 07:41:32;;;;;;;2.70;0.30;;;7.40;87.20;;;;;;5034468;28;20128;-80
2020/12/04 07:43:59;;;;;;;1.55;0.30;;;7.50;86.30;;;;;;5043156;28;20028;-80
2020/12/04 07:46:25;;;;;;;1.52;0.20;;;7.50;86.20;;;;;;5034858;28;20044;-80
2020/12/04 07:49:16;;;;;;;1.65;0.20;;;7.60;85.00;;;;;;4997518;28;20034;-80
2020/12/04 07:51:42;;;;;;;1.38;0.55;;;7.60;85.10;;;;;;5036774;28;20017;-80
2020/12/04 07:54:22;;;;;;;0.85;0.20;;;7.60;85.10;;;;;;5041909;28;20078;-81
2020/12/04 07:56:57;;;;;;;2.38;0.30;;;7.70;85.30;;;;;;5032143;28;20028;-80
2020/12/04 07:59:33;;;;;;;0.63;0.17;;;7.70;85.10;;;;;;5031041;28;20086;-80
2020/12/04 08:02:01;;;;;;;0.52;0.20;;;7.60;85.20;;;;;;5055032;28;20481;-80
2020/12/04 08:04:28;;;;;;;1.02;0.30;;;7.70;85.40;;;;;;5033496;28;20397;-81
2020/12/04 08:07:08;;;;;;;0.60;0.30;;;7.70;85.40;;;;;;5054998;28;20495;-81
2020/12/04 08:09:38;;;;;;;0.52;0.20;;;7.70;85.40;;;;;;5055267;28;20036;-80
2020/12/04 08:12:15;;;;;;;0.60;0.20;;;7.70;85.00;;;;;;5055426;28;20025;-80
2020/12/04 08:14:55;;;;;;;0.63;0.30;;;7.70;85.10;;;;;;5039807;28;20440;-80
2020/12/04 08:17:22;;;;;;;0.68;0.20;;;7.70;85.00;;;;;;5054853;28;20385;-80
2020/12/04 08:19:48;;;;;;;1.42;0.22;;;7.70;85.20;;;;;;5055577;28;20044;-80
2020/12/04 08:22:14;;;;;;;2.47;0.40;;;7.70;85.80;;;;;;5042699;28;20053;-81
2020/12/04 08:24:50;;;;;;;0.75;0.20;;;7.60;86.60;;;;;;5021549;28;20508;-82
2020/12/04 08:27:16;;;;;;;0.32;0.10;;;7.60;87.50;;;;;;5037809;28;20037;-81
2020/12/04 08:29:46;;;;;;;1.95;0.20;;;7.50;87.70;;;;;;5043178;28;20037;-80
2020/12/04 08:32:19;;;;;;;0.47;0.10;;;7.40;87.90;;;;;;5054646;28;20359;-81
2020/12/04 08:34:47;;;;;;;0.47;0.22;;;7.40;88.30;;;;;;5055831;28;20025;-82
2020/12/04 08:37:13;;;;;;;4.22;0.30;;;7.30;88.90;;;;;;5029073;28;20498;-81
2020/12/04 08:39:49;;;;;;;2.92;0.40;;;7.30;89.30;;;;;;5052602;28;20033;-81
2020/12/04 08:42:31;;;;;;;0.80;0.32;;;7.40;89.50;;;;;;5041260;28;20029;-80
2020/12/04 08:45:10;;;;;;;1.42;0.20;;;7.40;89.40;;;;;;5045266;28;20029;-81
2020/12/04 08:47:41;;;;;;;1.42;0.30;;;7.30;89.40;;;;;;5018209;28;20051;-81
2020/12/04 08:50:17;;;;;;;2.50;0.20;;;7.30;89.60;;;;;;5046405;28;20025;-80
2020/12/04 08:52:53;;;;;;;1.50;0.20;;;7.40;89.70;;;;;;5044859;28;20025;-80
2020/12/04 08:55:24;;;;;;;1.70;0.35;;;7.40;89.60;;;;;;5037595;28;20413;-80
2020/12/04 08:57:52;;;;;;;0.90;0.28;;;7.50;89.60;;;;;;5037607;28;20029;-80
2020/12/04 09:00:22;;;;;;;1.40;0.10;;;7.50;89.60;;;;;;5055382;28;20482;-81
2020/12/04 09:02:48;;;;;;;0.90;0.30;;;7.60;89.50;;;;;;5037166;28;20047;-80
2020/12/04 09:05:16;;;;;;;3.15;0.40;;;7.60;89.60;;;;;;5037104;28;20037;-81
2020/12/04 09:07:42;;;;;;;0.40;0.10;;;7.70;89.10;;;;;;5037167;28;20497;-80
2020/12/04 09:10:13;;;;;;;0.82;0.20;;;7.70;88.90;;;;;;5054160;28;20033;-80
2020/12/04 09:12:39;;;;;;;1.65;0.35;;;7.70;88.90;;;;;;5037120;28;20025;-80
2020/12/04 09:15:09;;;;;;;0.30;0.17;;;7.80;89.00;;;;;;5037169;28;20036;-80
2020/12/04 09:17:35;;;;;;;1.00;0.20;;;7.80;89.00;;;;;;5037230;28;20025;-80
2020/12/04 09:20:04;;;;;;;2.47;0.28;;;7.80;89.10;;;;;;5036520;28;20032;-76
2020/12/04 09:22:29;;;;;;;0.50;0.25;;;7.80;88.70;;;;;;5024046;28;20182;-76
2020/12/04 09:24:55;;;;;;;0.82;0.30;;;7.80;88.60;;;;;;5040259;28;20153;-76
2020/12/04 09:27:20;;;;;;;0.75;0.40;;;7.80;88.00;;;;;;5021288;28;20052;-76
2020/12/04 09:29:46;;;;;;;1.58;0.32;;;7.80;88.20;;;;;;5042340;28;20083;-76
2020/12/04 09:32:15;;;;;;;1.38;0.40;;;7.80;88.30;;;;;;5024087;28;20114;-76
2020/12/04 09:34:42;;;;;;;1.20;0.30;;;7.70;87.50;;;;;;5055314;28;20128;-76
2020/12/04 09:37:24;;;;;;;0.32;0.17;;;7.70;87.00;;;;;;5036650;28;20550;-76
2020/12/04 09:39:54;;;;;;;2.20;0.25;;;7.70;86.80;;;;;;5054380;28;20076;-76
2020/12/04 09:42:22;;;;;;;1.75;0.32;;;7.60;86.40;;;;;;5054164;28;20020;-76
2020/12/04 09:44:48;;;;;;;0.85;0.22;;;7.60;86.00;;;;;;5021830;28;20114;-76
2020/12/04 09:47:15;;;;;;;0.52;0.20;;;7.60;85.80;;;;;;5036373;28;20481;-76
2020/12/04 09:49:41;;;;;;;0.63;0.20;;;7.60;85.70;;;;;;5054280;28;20416;-76
2020/12/04 09:52:08;;;;;;;2.75;0.20;;;7.50;86.10;;;;;;5038049;28;20029;-75
2020/12/04 09:54:36;;;;;;;2.80;0.20;;;7.50;85.30;;;;;;5046500;28;20036;-76
2020/12/04 09:57:04;;;;;;;2.90;0.20;;;7.50;84.80;;;;;;5053787;28;20025;-76
2020/12/04 09:59:29;;;;;;;0.25;0.10;;;7.50;84.80;;;;;;5036855;28;20422;-76
2020/12/04 10:01:55;;;;;;;1.95;0.10;;;7.50;84.70;;;;;;5019788;28;20059;-76
2020/12/04 10:04:23;;;;;;;1.17;0.20;;;7.50;84.90;;;;;;5019572;28;20060;-76
2020/12/04 10:06:49;;;;;;;0.50;0.20;;;7.50;84.40;;;;;;5045745;28;20029;-76
2020/12/04 10:09:15;;;;;;;0.75;0.20;;;7.50;84.20;;;;;;5026301;28;20087;-76
2020/12/04 10:11:41;;;;;;;1.73;0.30;;;7.50;84.10;;;;;;5053370;28;20350;-76
2020/12/04 10:14:08;;;;;;;0.70;0.20;;;7.50;84.20;;;;;;5019352;28;20529;-76
2020/12/04 10:16:33;;;;;;;0.73;0.30;;;7.60;84.40;;;;;;5035895;28;20029;-76
2020/12/04 10:18:59;;;;;;;0.28;0.17;;;7.60;83.70;;;;;;5038382;28;20096;-76
2020/12/04 10:21:26;;;;;;;0.10;0.10;;;7.60;83.30;;;;;;5035169;28;20032;-75
2020/12/04 10:23:54;;;;;;;0.50;0.10;;;7.70;83.50;;;;;;5035757;28;20040;-76
2020/12/04 10:26:23;;;;;;;1.08;0.35;;;7.70;83.30;;;;;;5035654;28;20036;-76
2020/12/04 10:28:48;;;;;;;0.98;0.28;;;7.80;82.90;;;;;;5035647;28;20029;-76
2020/12/04 10:31:15;;;;;;;0.35;0.10;;;7.90;82.40;;;;;;5035912;28;20047;-76
2020/12/04 10:33:40;;;;;;;7.05;0.30;;;7.90;81.60;;;;;;5035448;28;20035;-76
2020/12/04 10:36:07;;;;;;;0.77;0.30;;;7.90;81.50;;;;;;5035428;28;20476;-76
2020/12/04 10:38:32;;;;;;;1.65;0.30;;;8.00;81.40;;;;;;5035287;28;20466;-76
2020/12/04 10:40:58;;;;;;;1.65;0.20;;;8.00;80.70;;;;;;5053309;28;20032;-76
2020/12/04 10:43:27;;;;;;;0.75;0.20;;;8.00;80.90;;;;;;5035258;28;20296;-76
2020/12/04 10:45:53;;;;;;;0.57;0.10;;;8.00;80.90;;;;;;5053346;28;20051;-76
2020/12/04 10:48:19;;;;;;;0.90;0.22;;;8.00;80.80;;;;;;5034816;28;20025;-76
2020/12/04 10:50:45;;;;;;;0.73;0.20;;;8.00;80.40;;;;;;5035108;28;20075;-76
2020/12/04 10:53:11;;;;;;;0.30;0.10;;;8.00;78.50;;;;;;5054496;28;20073;-76
2020/12/04 10:55:37;;;;;;;0.50;0.20;;;7.90;79.00;;;;;;5051458;28;20040;-76
2020/12/04 10:58:03;;;;;;;0.65;0.20;;;8.00;79.40;;;;;;5034204;28;20021;-76
2020/12/04 11:00:29;;;;;;;0.85;0.13;;;8.00;79.70;;;;;;5033963;28;20037;-76
2020/12/04 11:03:06;;;;;;;1.30;0.20;;;8.00;79.70;;;;;;5034855;28;20029;-76
2020/12/04 11:05:40;;;;;;;1.60;0.20;;;8.00;79.00;;;;;;5028970;28;20481;-76
2020/12/04 11:08:06;;;;;;;0.68;0.20;;;8.00;79.50;;;;;;5042584;28;20033;-76
2020/12/04 11:10:32;;;;;;;1.15;0.20;;;8.00;79.70;;;;;;5053616;28;20044;-76
2020/12/04 11:12:58;;;;;;;1.33;0.20;;;7.90;79.60;;;;;;5042339;28;20033;-77
2020/12/04 11:15:23;;;;;;;0.82;0.10;;;7.90;79.60;;;;;;5012748;28;20053;-77
2020/12/04 11:17:49;;;;;;;0.32;0.30;;;8.00;79.40;;;;;;5019488;28;20553;-77
2020/12/04 11:20:17;;;;;;;1.02;0.13;;;8.00;79.30;;;;;;5034945;28;20436;-77
2020/12/04 11:22:43;;;;;;;0.17;0.10;;;8.00;79.40;;;;;;5034448;28;20031;-77
2020/12/04 11:25:09;;;;;;;0.57;0.20;;;8.00;79.30;;;;;;5034371;28;20026;-78
2020/12/04 11:27:41;;;;;;;0.82;0.20;;;8.00;79.10;;;;;;5033705;28;20394;-77
2020/12/04 11:30:07;;;;;;;0.22;0.10;;;8.00;79.10;;;;;;5033199;28;20509;-78
2020/12/04 11:32:33;;;;;;;0.47;0.20;;;8.10;78.90;;;;;;5024925;28;20040;-77
2020/12/04 11:34:59;;;;;;;0.47;0.30;;;8.20;79.00;;;;;;5029264;28;20040;-77
2020/12/04 11:37:25;;;;;;;2.08;0.35;;;8.10;79.10;;;;;;5038140;28;20049;-77
2020/12/04 11:39:51;;;;;;;0.45;0.28;;;8.20;79.30;;;;;;5038038;28;20029;-77
2020/12/04 11:42:16;;;;;;;0.50;0.20;;;8.30;79.10;;;;;;5038417;28;20025;-77
2020/12/04 11:44:42;;;;;;;1.20;0.40;;;8.50;78.90;;;;;;5054921;28;20059;-77
2020/12/04 11:47:07;;;;;;;1.98;0.50;;;8.50;79.00;;;;;;5022401;28;20029;-80
2020/12/04 11:49:33;;;;;;;0.90;0.20;;;8.50;79.00;;;;;;5037772;28;20504;-77
2020/12/04 11:51:59;;;;;;;0.90;0.30;;;8.40;78.90;;;;;;5019109;28;20033;-76
2020/12/04 11:54:24;;;;;;;1.75;0.45;;;8.40;79.10;;;;;;5044488;28;20029;-76
2020/12/04 11:56:50;;;;;;;1.48;0.55;;;8.40;79.20;;;;;;5055496;28;20040;-76
2020/12/04 11:59:19;;;;;;;0.85;0.50;;;8.40;79.40;;;;;;5037877;28;20033;-76
2020/12/04 12:01:46;;;;;;;1.13;0.50;;;8.40;79.20;;;;;;5021654;28;20219;-76
2020/12/04 12:04:12;;;;;;;1.45;0.35;;;8.40;79.10;;;;;;5037819;28;20033;-76
2020/12/04 12:06:38;;;;;;;0.30;0.20;;;8.40;78.80;;;;;;5037659;28;20033;-76
2020/12/04 12:09:03;;;;;;;0.65;0.30;;;8.40;78.70;;;;;;5020515;28;20033;-76
2020/12/04 12:11:29;;;;;;;1.00;0.30;;;8.40;79.40;;;;;;5037860;28;20137;-76
2020/12/04 12:13:54;;;;;;;2.90;0.20;;;8.40;78.70;;;;;;5037540;28;20033;-76
2020/12/04 12:16:21;;;;;;;0.70;0.22;;;8.50;78.30;;;;;;5037880;28;20060;-76
2020/12/04 12:18:47;;;;;;;0.75;0.28;;;8.50;78.20;;;;;;5038354;28;20029;-76
2020/12/04 12:21:13;;;;;;;1.77;0.28;;;8.40;78.20;;;;;;5037929;28;20557;-76
2020/12/04 12:23:39;;;;;;;1.42;0.30;;;8.50;78.40;;;;;;5038017;28;20063;-76
2020/12/04 12:26:06;;;;;;;0.57;0.32;;;8.40;77.10;;;;;;5037718;28;20037;-76
2020/12/04 12:28:32;;;;;;;0.77;0.20;;;8.40;77.60;;;;;;5037830;28;20021;-76
2020/12/04 12:30:58;;;;;;;0.50;0.25;;;8.40;78.00;;;;;;5037628;28;20048;-75
2020/12/04 12:33:24;;;;;;;1.15;0.45;;;8.40;78.00;;;;;;5055448;28;20525;-76
2020/12/04 12:35:50;;;;;;;0.22;0.10;;;8.40;77.60;;;;;;5037581;28;20112;-76
2020/12/04 12:38:15;;;;;;;0.30;0.17;;;8.40;77.80;;;;;;5037703;28;20124;-76
2020/12/04 12:40:41;;;;;;;0.70;0.20;;;8.50;77.20;;;;;;5037791;28;20473;-76
2020/12/04 12:43:07;;;;;;;1.13;0.20;;;8.70;76.50;;;;;;5037778;28;20078;-76
2020/12/04 12:45:32;;;;;;;0.30;0.20;;;9.00;74.60;;;;;;5055288;28;20029;-76
2020/12/04 12:47:58;;;;;;;1.15;0.25;;;9.10;73.80;;;;;;5037671;28;20061;-76
2020/12/04 12:50:23;;;;;;;0.60;0.20;;;9.10;74.20;;;;;;5037367;28;20068;-75
2020/12/04 12:52:49;;;;;;;0.40;0.20;;;9.20;74.60;;;;;;5020860;28;20477;-76
2020/12/04 12:55:15;;;;;;;1.88;0.20;;;9.20;74.50;;;;;;5037503;28;20530;-76
2020/12/04 12:57:41;;;;;;;1.60;0.30;;;9.20;74.60;;;;;;5037307;28;20064;-76
2020/12/04 13:00:07;;;;;;;2.90;0.30;;;9.30;74.70;;;;;;5037319;28;20036;-76
2020/12/04 13:02:33;;;;;;;0.98;0.65;;;9.20;73.60;;;;;;5037034;28;20025;-76
2020/12/04 13:04:59;;;;;;;0.50;0.20;;;9.10;74.20;;;;;;5037412;28;20044;-76